createdAt,value
2023-01-21T00:01:15.004Z,5.00
2023-01-21T00:03:43.332Z,4.45
2023-01-21T00:06:14.823Z,3.70
2023-01-21T00:08:43.202Z,4.40
2023-01-21T00:11:14.621Z,3.97
2023-01-21T00:13:44.514Z,4.40
2023-01-21T00:16:13.405Z,4.18
2023-01-21T00:18:41.437Z,4.43
2023-01-21T00:21:10.901Z,4.10
2023-01-21T00:23:39.207Z,4.38
2023-01-21T00:26:11.425Z,4.00
2023-01-21T00:28:41.665Z,4.10
2023-01-21T00:31:11.784Z,4.57
2023-01-21T00:33:40.166Z,4.93
2023-01-21T00:36:14.514Z,4.90
2023-01-21T00:38:42.250Z,5.32
2023-01-21T00:41:13.262Z,5.70
2023-01-21T00:43:42.469Z,6.30
2023-01-21T00:46:11.210Z,6.32
2023-01-21T00:48:40.392Z,6.95
2023-01-21T00:51:09.619Z,6.90
2023-01-21T00:53:41.855Z,6.95
2023-01-21T00:56:12.771Z,6.97
2023-01-21T00:58:43.381Z,7.15
2023-01-21T01:01:19.144Z,7.05
2023-01-21T01:03:48.915Z,7.63
2023-01-21T01:06:24.064Z,7.93
2023-01-21T01:08:52.652Z,8.25
2023-01-21T01:11:25.240Z,8.48
2023-01-21T01:13:55.119Z,8.50
2023-01-21T01:16:23.244Z,8.60
2023-01-21T01:18:52.574Z,9.15
2023-01-21T01:21:22.377Z,9.20
2023-01-21T01:23:54.772Z,9.10
2023-01-21T01:26:22.856Z,10.20
2023-01-21T01:28:50.574Z,9.75
2023-01-21T01:31:19.816Z,9.93
2023-01-21T01:33:48.327Z,10.43
2023-01-21T01:36:25.945Z,9.82
2023-01-21T01:38:54.271Z,10.63
2023-01-21T01:41:29.906Z,9.98
2023-01-21T01:43:59.923Z,10.00
2023-01-21T01:46:36.577Z,10.10
2023-01-21T01:49:15.839Z,10.13
2023-01-21T01:51:54.659Z,10.40
2023-01-21T01:54:29.977Z,10.50
2023-01-21T01:57:03.121Z,10.55
2023-01-21T01:59:32.031Z,10.40
2023-01-21T02:02:07.934Z,9.82
2023-01-21T02:04:56.963Z,9.43
2023-01-21T02:07:26.371Z,9.32
2023-01-21T02:09:55.281Z,9.50
2023-01-21T02:12:23.593Z,9.50
2023-01-21T02:14:51.579Z,9.30
2023-01-21T02:17:34.938Z,8.85
2023-01-21T02:20:30.367Z,9.90
2023-01-21T02:23:20.079Z,9.02
2023-01-21T02:26:31.181Z,9.68
2023-01-21T02:29:16.089Z,8.77
2023-01-21T02:32:19.281Z,8.73
2023-01-21T02:35:05.512Z,8.98
2023-01-21T02:38:02.254Z,9.18
2023-01-21T02:40:53.218Z,9.07
2023-01-21T02:43:40.402Z,8.43
2023-01-21T02:46:49.840Z,8.55
2023-01-21T02:49:42.266Z,8.25
2023-01-21T02:52:22.144Z,8.18
2023-01-21T02:54:57.059Z,8.27
2023-01-21T02:57:51.106Z,8.10
2023-01-21T03:00:29.617Z,8.70
2023-01-21T03:03:24.244Z,8.23
2023-01-21T03:06:30.118Z,7.95
2023-01-21T03:09:03.847Z,9.38
2023-01-21T03:11:32.241Z,8.40
2023-01-21T03:14:59.552Z,9.30
2023-01-21T03:17:44.856Z,8.80
2023-01-21T03:20:39.697Z,9.75
2023-01-21T03:23:17.532Z,10.02
2023-01-21T03:25:47.302Z,10.15
2023-01-21T03:28:30.785Z,10.35
2023-01-21T03:31:09.538Z,11.63
2023-01-21T03:33:45.861Z,11.55
2023-01-21T03:36:34.813Z,12.15
2023-01-21T03:39:13.309Z,12.38
2023-01-21T03:41:41.559Z,12.10
2023-01-21T03:44:09.539Z,12.63
2023-01-21T03:46:39.853Z,12.80
2023-01-21T03:49:33.920Z,13.35
2023-01-21T03:52:04.653Z,13.43
2023-01-21T03:54:32.991Z,12.93
2023-01-21T03:57:00.797Z,13.35
2023-01-21T03:59:28.630Z,13.80
2023-01-21T04:01:56.301Z,13.95
2023-01-21T04:04:24.154Z,13.65
2023-01-21T04:06:51.962Z,13.43
2023-01-21T04:09:19.719Z,14.52
2023-01-21T04:11:47.662Z,14.02
2023-01-21T04:14:15.488Z,14.40
2023-01-21T04:16:43.466Z,14.60
2023-01-21T04:19:11.187Z,13.73
2023-01-21T04:21:38.883Z,15.00
2023-01-21T04:24:07.120Z,14.95
2023-01-21T04:26:35.288Z,14.30
2023-01-21T04:29:03.093Z,15.13
2023-01-21T04:31:30.816Z,14.90
2023-01-21T04:33:59.058Z,16.23
2023-01-21T04:36:26.772Z,15.82
2023-01-21T04:38:54.721Z,15.57
2023-01-21T04:41:25.166Z,15.52
2023-01-21T04:43:53.192Z,15.90
2023-01-21T04:46:20.924Z,16.30
2023-01-21T04:48:51.628Z,15.40
2023-01-21T04:51:19.509Z,15.88
2023-01-21T04:53:47.266Z,16.13
2023-01-21T04:56:15.265Z,15.90
2023-01-21T04:58:43.092Z,15.93
2023-01-21T05:01:11.072Z,15.27
2023-01-21T05:03:39.003Z,16.00
2023-01-21T05:06:07.058Z,16.13
2023-01-21T05:08:34.717Z,15.15
2023-01-21T05:11:02.432Z,16.08
2023-01-21T05:13:30.198Z,16.48
2023-01-21T05:16:08.542Z,16.40
2023-01-21T05:18:37.782Z,16.90
2023-01-21T05:21:06.275Z,16.50
2023-01-21T05:23:34.164Z,16.77
2023-01-21T05:26:01.876Z,17.73
2023-01-21T05:28:29.637Z,16.48
2023-01-21T05:31:04.366Z,16.45
2023-01-21T05:33:34.595Z,16.00
2023-01-21T05:36:04.641Z,15.27
2023-01-21T05:38:32.442Z,16.15
2023-01-21T05:41:05.837Z,16.98
2023-01-21T05:43:33.791Z,15.73
2023-01-21T05:46:01.744Z,16.88
2023-01-21T05:48:29.649Z,16.45
2023-01-21T05:50:58.445Z,16.05
2023-01-21T05:53:26.763Z,16.05
2023-01-21T05:55:56.273Z,15.73
2023-01-21T05:58:25.665Z,15.57
2023-01-21T06:00:54.392Z,15.55
2023-01-21T06:03:22.161Z,16.05
2023-01-21T06:05:53.390Z,14.40
2023-01-21T06:08:21.225Z,15.13
2023-01-21T06:10:49.179Z,14.50
2023-01-21T06:13:16.939Z,14.25
2023-01-21T06:15:44.823Z,13.38
2023-01-21T06:18:12.527Z,13.00
2023-01-21T06:20:41.125Z,12.52
2023-01-21T06:23:08.982Z,13.38
2023-01-21T06:25:36.848Z,12.13
2023-01-21T06:28:04.649Z,12.55
2023-01-21T06:30:32.941Z,12.38
2023-01-21T06:33:00.637Z,12.32
2023-01-21T06:35:28.520Z,13.23
2023-01-21T06:37:56.258Z,12.85
2023-01-21T06:40:24.064Z,13.15
2023-01-21T06:42:51.755Z,12.15
2023-01-21T06:45:19.567Z,12.15
2023-01-21T06:47:47.609Z,12.85
2023-01-21T06:50:17.905Z,12.60
2023-01-21T06:52:48.436Z,11.88
2023-01-21T06:55:17.022Z,12.77
2023-01-21T06:57:45.547Z,13.25
2023-01-21T07:00:14.443Z,13.45
2023-01-21T07:02:42.334Z,13.32
2023-01-21T07:05:10.235Z,12.98
2023-01-21T07:07:37.965Z,12.73
2023-01-21T07:10:06.758Z,12.35
2023-01-21T07:12:34.565Z,13.20
2023-01-21T07:15:02.472Z,12.45
2023-01-21T07:17:30.238Z,12.13
2023-01-21T07:19:58.117Z,13.48
2023-01-21T07:22:26.015Z,13.13
2023-01-21T07:24:53.854Z,12.50
2023-01-21T07:27:24.357Z,13.15
2023-01-21T07:29:52.109Z,12.85
2023-01-21T07:32:20.080Z,12.23
2023-01-21T07:34:47.987Z,13.63
2023-01-21T07:37:15.872Z,13.25
2023-01-21T07:39:43.750Z,14.32
2023-01-21T07:42:11.410Z,14.73
2023-01-21T07:44:39.251Z,14.10
2023-01-21T07:47:07.089Z,14.35
2023-01-21T07:49:35.042Z,12.77
2023-01-21T07:52:02.814Z,12.88
2023-01-21T07:54:30.546Z,12.63
2023-01-21T07:56:58.642Z,12.55
2023-01-21T07:59:26.371Z,12.05
2023-01-21T08:01:54.126Z,12.30
2023-01-21T08:04:22.906Z,12.77
2023-01-21T08:06:52.908Z,11.77
2023-01-21T08:09:21.012Z,12.60
2023-01-21T08:11:48.746Z,12.48
2023-01-21T08:14:16.579Z,12.50
2023-01-21T08:16:44.266Z,13.30
2023-01-21T08:19:13.893Z,13.65
2023-01-21T08:21:41.847Z,13.63
2023-01-21T08:24:10.549Z,13.85
2023-01-21T08:26:38.473Z,14.63
2023-01-21T08:29:06.327Z,12.90
2023-01-21T08:31:34.298Z,13.20
2023-01-21T08:34:02.050Z,12.35
2023-01-21T08:36:29.765Z,12.80
2023-01-21T08:39:06.283Z,12.63
2023-01-21T08:41:34.316Z,12.73
2023-01-21T08:44:21.993Z,11.90
2023-01-21T08:47:09.652Z,12.60
2023-01-21T08:49:37.402Z,14.75
2023-01-21T08:52:05.539Z,13.48
2023-01-21T08:54:33.413Z,13.55
2023-01-21T08:57:01.225Z,13.32
2023-01-21T08:59:30.155Z,12.57
2023-01-21T09:01:58.185Z,15.85
2023-01-21T09:04:27.606Z,15.70
2023-01-21T09:06:55.497Z,29.70
2023-01-21T09:09:23.349Z,20.27
2023-01-21T09:11:52.366Z,14.85
2023-01-21T09:14:21.487Z,13.63
2023-01-21T09:16:49.902Z,12.90
2023-01-21T09:19:18.177Z,12.77
2023-01-21T09:21:45.971Z,12.65
2023-01-21T09:24:13.846Z,12.07
2023-01-21T09:26:44.880Z,12.57
2023-01-21T09:29:12.797Z,12.10
2023-01-21T09:31:40.659Z,12.05
2023-01-21T09:34:10.785Z,13.27
2023-01-21T09:36:39.125Z,13.02
2023-01-21T09:39:07.764Z,13.73
2023-01-21T09:42:03.680Z,13.70
2023-01-21T09:44:43.742Z,12.65
2023-01-21T09:47:37.486Z,14.98
2023-01-21T09:50:22.147Z,13.63
2023-01-21T09:52:59.844Z,13.40
2023-01-21T09:55:47.557Z,12.75
2023-01-21T09:58:44.984Z,14.27
2023-01-21T10:01:24.482Z,14.82
2023-01-21T10:04:34.480Z,13.15
2023-01-21T10:07:22.944Z,15.68
2023-01-21T10:10:39.071Z,13.40
2023-01-21T10:13:48.177Z,12.90
2023-01-21T10:16:30.862Z,14.07
2023-01-21T10:19:02.873Z,13.18
2023-01-21T10:21:38.395Z,12.98
2023-01-21T10:24:20.274Z,13.90
2023-01-21T10:26:51.070Z,13.48
2023-01-21T10:29:23.812Z,9.30
2023-01-21T10:32:02.590Z,13.27
2023-01-21T10:34:33.383Z,13.70
2023-01-21T10:37:30.580Z,13.60
2023-01-21T10:40:48.611Z,13.43
2023-01-21T10:43:49.080Z,13.77
2023-01-21T10:46:22.527Z,12.98
2023-01-21T10:49:31.754Z,14.15
2023-01-21T10:52:13.884Z,13.68
2023-01-21T10:55:24.800Z,13.23
2023-01-21T10:58:21.827Z,13.30
2023-01-21T11:00:52.075Z,13.45
2023-01-21T11:03:47.263Z,14.25
2023-01-21T11:06:18.672Z,13.55
2023-01-21T11:11:30.564Z,13.27
2023-01-21T11:13:58.515Z,13.82
2023-01-21T11:16:46.587Z,15.32
2023-01-21T11:19:21.680Z,15.73
2023-01-21T11:22:17.666Z,15.65
2023-01-21T11:24:51.445Z,16.35
2023-01-21T11:27:34.819Z,14.30
2023-01-21T11:30:15.661Z,15.60
2023-01-21T11:32:52.138Z,17.52
2023-01-21T11:35:24.231Z,17.40
2023-01-21T11:37:52.070Z,15.80
2023-01-21T11:40:25.864Z,15.75
2023-01-21T11:42:57.567Z,15.80
2023-01-21T11:45:38.195Z,15.13
2023-01-21T11:48:36.790Z,11.00
2023-01-21T11:51:07.905Z,15.68
2023-01-21T11:53:35.675Z,16.65
2023-01-21T11:56:07.938Z,17.30
2023-01-21T11:58:42.701Z,16.33
2023-01-21T12:01:21.850Z,15.23
2023-01-21T12:03:56.292Z,16.95
2023-01-21T12:06:30.605Z,16.77
2023-01-21T12:09:04.837Z,17.42
2023-01-21T12:11:32.758Z,16.95
2023-01-21T12:14:29.443Z,20.55
2023-01-21T12:17:30.386Z,17.90
2023-01-21T12:20:26.142Z,16.77
2023-01-21T12:23:28.045Z,15.63
2023-01-21T12:26:20.298Z,14.70
2023-01-21T12:28:59.156Z,15.57
2023-01-21T12:31:37.590Z,14.82
2023-01-21T12:34:34.341Z,14.95
2023-01-21T12:37:10.310Z,14.93
2023-01-21T12:39:40.175Z,15.00
2023-01-21T12:42:38.431Z,15.07
2023-01-21T12:45:27.685Z,15.50
2023-01-21T12:48:07.072Z,16.80
2023-01-21T12:50:41.187Z,15.40
2023-01-21T12:53:33.533Z,15.52
2023-01-21T12:56:39.762Z,15.55
2023-01-21T12:59:33.634Z,15.07
2023-01-21T13:02:34.176Z,15.45
2023-01-21T13:05:52.066Z,14.43
2023-01-21T13:08:41.428Z,14.70
2023-01-21T13:11:15.822Z,13.95
2023-01-21T13:14:08.949Z,14.65
2023-01-21T13:16:43.400Z,14.32
2023-01-21T13:19:14.385Z,13.45
2023-01-21T13:22:10.767Z,14.25
2023-01-21T13:25:04.819Z,13.52
2023-01-21T13:27:50.589Z,14.93
2023-01-21T13:30:44.954Z,14.70
2023-01-21T13:33:39.904Z,13.70
2023-01-21T13:36:21.821Z,14.32
2023-01-21T13:39:05.448Z,14.07
2023-01-21T13:42:10.710Z,13.25
2023-01-21T13:44:57.311Z,13.30
2023-01-21T13:48:02.743Z,13.65
2023-01-21T13:50:40.047Z,12.52
2023-01-21T13:53:58.997Z,12.50
2023-01-21T13:57:02.304Z,12.07
2023-01-21T13:59:40.155Z,13.18
2023-01-21T14:02:37.056Z,12.43
2023-01-21T14:05:46.039Z,12.55
2023-01-21T14:08:24.387Z,13.38
2023-01-21T14:11:04.264Z,12.30
2023-01-21T14:14:02.680Z,11.65
2023-01-21T14:17:16.165Z,12.30
2023-01-21T14:20:18.225Z,11.15
2023-01-21T14:23:08.029Z,11.90
2023-01-21T14:25:54.088Z,10.70
2023-01-21T14:28:53.067Z,10.82
2023-01-21T14:31:26.975Z,10.27
2023-01-21T14:34:12.165Z,10.45
2023-01-21T14:37:31.065Z,10.23
2023-01-21T14:40:13.738Z,9.98
2023-01-21T14:42:49.277Z,10.45
2023-01-21T14:45:25.602Z,10.35
2023-01-21T14:48:41.659Z,10.55
2023-01-21T14:51:31.821Z,10.30
2023-01-21T14:54:26.842Z,10.38
2023-01-21T14:57:36.911Z,10.20
2023-01-21T15:00:34.010Z,9.82
2023-01-21T15:03:27.518Z,9.90
2023-01-21T15:06:22.022Z,10.23
2023-01-21T15:09:28.591Z,10.23
2023-01-21T15:12:34.016Z,10.10
2023-01-21T15:15:31.022Z,9.68
2023-01-21T15:18:10.336Z,9.52
2023-01-21T15:20:57.804Z,9.05
2023-01-21T15:23:30.231Z,8.88
2023-01-21T15:26:12.658Z,9.80
2023-01-21T15:28:57.619Z,10.00
2023-01-21T15:31:26.093Z,9.65
2023-01-21T15:33:58.924Z,9.38
2023-01-21T15:36:34.644Z,9.65
2023-01-21T15:39:16.574Z,8.60
2023-01-21T15:42:10.605Z,9.07
2023-01-21T15:44:59.141Z,9.02
2023-01-21T15:47:48.815Z,9.05
2023-01-21T15:50:30.137Z,9.18
2023-01-21T15:56:11.772Z,8.55
2023-01-21T15:58:49.843Z,11.35
2023-01-21T16:01:34.558Z,9.82
2023-01-21T16:04:27.111Z,9.63
2023-01-21T16:07:09.451Z,9.25
2023-01-21T16:10:04.731Z,8.90
2023-01-21T16:13:36.732Z,9.20
2023-01-21T16:16:47.699Z,11.10
2023-01-21T16:19:21.181Z,17.70
2023-01-21T16:21:57.025Z,13.35
2023-01-21T16:24:29.382Z,13.02
2023-01-21T16:27:24.082Z,9.77
2023-01-21T16:30:04.282Z,9.73
2023-01-21T16:32:32.616Z,9.68
2023-01-21T16:35:00.659Z,8.98
2023-01-21T16:37:30.771Z,9.27
2023-01-21T16:40:29.963Z,10.18
2023-01-21T16:43:12.949Z,9.60
2023-01-21T16:45:47.462Z,9.07
2023-01-21T16:48:29.708Z,8.73
2023-01-21T16:50:58.538Z,9.70
2023-01-21T16:53:26.839Z,9.43
2023-01-21T16:55:58.037Z,9.27
2023-01-21T17:01:18.130Z,8.07
2023-01-21T17:03:49.317Z,8.95
2023-01-21T17:06:29.116Z,8.50
2023-01-21T17:09:18.578Z,8.43
2023-01-21T17:11:47.457Z,8.70
2023-01-21T17:14:30.783Z,9.65
2023-01-21T17:17:02.405Z,9.07
2023-01-21T17:19:42.560Z,8.55
2023-01-21T17:22:25.447Z,8.85
2023-01-21T17:25:07.623Z,9.15
2023-01-21T17:27:38.083Z,6.68
2023-01-21T17:30:32.742Z,9.20
2023-01-21T17:33:02.623Z,9.88
2023-01-21T17:35:33.582Z,10.85
2023-01-21T17:38:04.378Z,11.20
2023-01-21T17:40:42.729Z,7.43
2023-01-21T17:43:25.476Z,9.95
2023-01-21T17:45:56.415Z,10.35
2023-01-21T17:48:35.244Z,10.95
2023-01-21T17:51:23.759Z,9.73
2023-01-21T17:54:05.933Z,9.48
2023-01-21T17:56:38.568Z,12.23
2023-01-21T17:59:28.325Z,11.98
2023-01-21T18:01:56.447Z,11.25
2023-01-21T18:04:24.335Z,14.75
2023-01-21T18:06:54.518Z,11.93
2023-01-21T18:09:25.230Z,11.20
2023-01-21T18:11:57.226Z,10.87
2023-01-21T18:14:26.408Z,10.25
2023-01-21T18:16:54.812Z,9.55
2023-01-21T18:19:37.193Z,9.20
2023-01-21T18:22:06.835Z,9.15
2023-01-21T18:24:35.578Z,9.30
2023-01-21T18:27:03.503Z,9.93
2023-01-21T18:29:31.559Z,9.43
2023-01-21T18:31:59.498Z,9.23
2023-01-21T18:34:29.034Z,9.70
2023-01-21T18:36:57.729Z,9.23
2023-01-21T18:39:25.737Z,9.50
2023-01-21T18:41:53.509Z,10.20
2023-01-21T18:44:21.209Z,9.50
2023-01-21T18:46:49.447Z,10.05
2023-01-21T18:49:20.298Z,10.77
2023-01-21T18:51:48.145Z,10.23
2023-01-21T18:54:18.228Z,9.98
2023-01-21T18:56:46.517Z,10.55
2023-01-21T18:59:17.906Z,10.05
2023-01-21T19:04:18.279Z,9.10
2023-01-21T19:06:55.369Z,9.70
2023-01-21T19:09:25.699Z,9.68
2023-01-21T19:11:53.525Z,9.88
2023-01-21T19:14:21.256Z,9.23
2023-01-21T19:16:49.026Z,10.13
2023-01-21T19:19:20.415Z,9.93
2023-01-21T19:21:48.376Z,9.20
2023-01-21T19:24:16.154Z,9.57
2023-01-21T19:26:44.041Z,9.35
2023-01-21T19:29:21.509Z,8.95
2023-01-21T19:31:49.472Z,10.27
2023-01-21T19:34:17.234Z,10.10
2023-01-21T19:36:46.604Z,9.90
2023-01-21T19:39:19.227Z,9.82
2023-01-21T19:41:48.601Z,9.77
2023-01-21T19:44:19.379Z,9.77
2023-01-21T19:46:47.288Z,10.05
2023-01-21T19:49:17.313Z,9.80
2023-01-21T19:51:45.199Z,9.40
2023-01-21T19:54:12.967Z,9.57
2023-01-21T19:56:40.850Z,9.82
2023-01-21T19:59:14.327Z,9.20
2023-01-21T20:01:42.204Z,9.50
2023-01-21T20:04:10.070Z,8.98
2023-01-21T20:06:44.597Z,9.20
2023-01-21T20:09:17.554Z,9.73
2023-01-21T20:11:45.268Z,9.02
2023-01-21T20:14:13.138Z,8.80
2023-01-21T20:16:49.910Z,9.25
2023-01-21T20:19:19.259Z,8.98
2023-01-21T20:21:59.901Z,8.75
2023-01-21T20:26:59.204Z,9.00
2023-01-21T20:29:27.176Z,8.25
2023-01-21T20:31:55.243Z,8.65
2023-01-21T20:34:23.087Z,9.20
2023-01-21T20:36:51.851Z,9.23
2023-01-21T20:39:19.864Z,8.60
2023-01-21T20:41:47.627Z,9.05
2023-01-21T20:44:15.632Z,9.88
2023-01-21T20:46:45.410Z,9.23
2023-01-21T20:49:13.338Z,9.63
2023-01-21T20:51:41.036Z,9.90
2023-01-21T20:54:08.879Z,9.27
2023-01-21T20:56:38.277Z,9.75
2023-01-21T20:59:06.215Z,10.02
2023-01-21T21:01:34.938Z,10.70
2023-01-21T21:04:02.819Z,10.70
2023-01-21T21:06:30.895Z,10.43
2023-01-21T21:08:58.957Z,10.43
2023-01-21T21:11:26.770Z,10.43
2023-01-21T21:13:54.563Z,9.73
2023-01-21T21:16:28.666Z,9.70
2023-01-21T21:18:56.775Z,9.82
2023-01-21T21:21:24.795Z,9.10
2023-01-21T21:23:53.393Z,10.00
2023-01-21T21:26:29.129Z,9.60
2023-01-21T21:29:00.063Z,8.77
2023-01-21T21:31:32.744Z,9.45
2023-01-21T21:34:00.869Z,9.10
2023-01-21T21:36:31.277Z,9.63
2023-01-21T21:39:00.092Z,6.47
2023-01-21T21:41:46.795Z,9.52
2023-01-21T21:44:14.616Z,8.88
2023-01-21T21:47:03.620Z,8.90
2023-01-21T21:49:32.129Z,8.65
2023-01-21T21:52:00.902Z,9.25
2023-01-21T21:54:29.800Z,9.27
2023-01-21T21:56:57.854Z,9.15
2023-01-21T21:59:25.812Z,9.75
2023-01-21T22:01:53.716Z,9.07
2023-01-21T22:04:22.960Z,8.95
2023-01-21T22:06:50.693Z,8.68
2023-01-21T22:09:18.775Z,8.43
2023-01-21T22:11:46.640Z,8.52
2023-01-21T22:14:14.813Z,8.18
2023-01-21T22:16:42.705Z,8.75
2023-01-21T22:19:11.976Z,8.40
2023-01-21T22:21:39.744Z,8.57
2023-01-21T22:24:08.262Z,8.70
2023-01-21T22:26:36.412Z,8.13
2023-01-21T22:29:05.313Z,8.30
2023-01-21T22:31:34.042Z,8.27
2023-01-21T22:34:01.912Z,8.00
2023-01-21T22:36:30.926Z,8.73
2023-01-21T22:38:59.239Z,8.23
2023-01-21T22:41:27.578Z,9.15
2023-01-21T22:43:57.203Z,9.00
2023-01-21T22:46:33.627Z,8.27
2023-01-21T22:49:01.547Z,8.52
2023-01-21T22:51:29.541Z,8.70
2023-01-21T22:53:57.811Z,8.48
2023-01-21T22:56:44.801Z,8.73
2023-01-21T22:59:14.477Z,8.75
2023-01-21T23:01:42.373Z,9.20
2023-01-21T23:04:11.013Z,9.23
2023-01-21T23:06:38.916Z,9.27
2023-01-21T23:09:09.486Z,9.30
2023-01-21T23:11:39.811Z,9.57
2023-01-21T23:14:09.875Z,8.80
2023-01-21T23:16:38.059Z,9.05
2023-01-21T23:19:05.896Z,8.73
2023-01-21T23:21:33.958Z,8.27
2023-01-21T23:24:01.695Z,7.75
2023-01-21T23:26:29.463Z,8.57
2023-01-21T23:28:57.755Z,8.43
2023-01-21T23:31:26.129Z,8.32
2023-01-21T23:33:56.271Z,8.60
2023-01-21T23:36:24.694Z,7.95
2023-01-21T23:38:55.081Z,8.57
2023-01-21T23:41:22.982Z,8.43
2023-01-21T23:43:50.732Z,8.02
2023-01-21T23:46:19.902Z,7.68
2023-01-21T23:48:48.455Z,7.82
2023-01-21T23:51:18.331Z,7.68
2023-01-21T23:53:49.068Z,8.35
2023-01-21T23:56:22.255Z,7.72
2023-01-21T23:58:53.584Z,8.55
